Time;durP1;ratioP1;P1;durP2;ratioP2;P2;SDS_P1;SDS_P2;PMS_P1;PMS_P2;Temp;Humidity;BMP_temperature;BMP_pressure;BME280_temperature;BME280_humidity;BME280_pressure;Samples;Min_cycle;Max_cycle;Signal;HPM_P1;HPM_P2
2023/12/03 00:01:07;;;;;;;81.00;40.40;;;;;;;2.79;100.00;99549.73;109938;1241;58350;-76
2023/12/03 00:03:56;;;;;;;81.50;42.10;;;;;;;2.75;100.00;99576.10;109846;1240;64692;-76
2023/12/03 00:06:25;;;;;;;84.70;42.00;;;;;;;2.77;100.00;99577.86;109833;1240;72091;-76
2023/12/03 00:08:55;;;;;;;74.20;37.60;;;;;;;2.83;100.00;99580.11;109809;1240;70440;-79
2023/12/03 00:11:23;;;;;;;70.00;34.00;;;;;;;2.86;100.00;99583.86;109920;1241;72941;-78
2023/12/03 00:13:54;;;;;;;77.50;35.50;;;;;;;2.88;100.00;99599.23;109766;1241;60974;-77
2023/12/03 00:16:23;;;;;;;71.90;35.80;;;;;;;2.88;100.00;99602.66;109968;1241;57674;-76
2023/12/03 00:18:52;;;;;;;76.60;36.30;;;;;;;2.86;100.00;99609.52;109843;1241;74252;-74
2023/12/03 00:21:21;;;;;;;79.30;37.30;;;;;;;2.84;100.00;99616.83;109798;1240;72570;-76
2023/12/03 00:23:51;;;;;;;79.50;39.30;;;;;;;2.78;100.00;99621.98;109849;1239;70550;-77
2023/12/03 00:26:19;;;;;;;86.40;41.60;;;;;;;2.77;100.00;99622.92;109747;1240;73534;-77
2023/12/03 00:28:48;;;;;;;89.70;40.90;;;;;;;2.74;100.00;99613.96;109730;1241;61428;-75
2023/12/03 00:31:17;;;;;;;85.40;41.20;;;;;;;2.70;100.00;99626.73;109740;1239;57832;-76
2023/12/03 00:33:46;;;;;;;81.20;34.70;;;;;;;2.81;100.00;99635.95;109853;1240;63002;-76
2023/12/03 00:36:15;;;;;;;68.10;32.60;;;;;;;2.89;100.00;99638.89;109889;1239;61001;-76
2023/12/03 00:38:44;;;;;;;64.20;32.80;;;;;;;2.90;100.00;99646.74;109886;1241;68731;-77
2023/12/03 00:41:13;;;;;;;57.40;29.50;;;;;;;2.85;100.00;99640.85;109868;1239;74201;-77
2023/12/03 00:43:44;;;;;;;74.90;36.60;;;;;;;2.77;100.00;99643.20;109776;1242;58474;-76
2023/12/03 00:46:13;;;;;;;66.80;30.80;;;;;;;2.71;100.00;99651.27;109865;1241;61005;-76
2023/12/03 00:48:42;;;;;;;62.50;29.80;;;;;;;2.72;100.00;99646.09;109890;1239;74922;-76
2023/12/03 00:51:13;;;;;;;70.60;35.40;;;;;;;2.69;100.00;99651.58;109861;1241;62037;-73
2023/12/03 00:53:42;;;;;;;68.30;34.50;;;;;;;2.63;100.00;99658.58;109685;1240;61045;-75
2023/12/03 00:56:11;;;;;;;67.30;34.40;;;;;;;2.67;100.00;99665.80;109777;1242;63859;-73
2023/12/03 00:58:40;;;;;;;63.40;32.00;;;;;;;2.65;100.00;99664.66;109748;1241;62005;-76
2023/12/03 01:01:09;;;;;;;57.40;30.20;;;;;;;2.62;100.00;99666.23;109900;1240;60673;-77
2023/12/03 01:03:39;;;;;;;61.90;30.30;;;;;;;2.62;100.00;99669.65;109914;1241;74358;-79
2023/12/03 01:06:08;;;;;;;67.40;33.50;;;;;;;2.61;100.00;99664.92;109891;1241;71667;-76
2023/12/03 01:08:37;;;;;;;70.00;33.70;;;;;;;2.56;100.00;99650.73;109875;1241;69544;-75
2023/12/03 01:11:06;;;;;;;66.40;35.20;;;;;;;2.52;100.00;99645.34;109866;1241;72011;-74
2023/12/03 01:13:35;;;;;;;72.20;36.40;;;;;;;2.51;100.00;99647.24;109860;1241;61950;-75
2023/12/03 01:16:04;;;;;;;70.50;35.50;;;;;;;2.52;100.00;99648.26;109753;1239;61437;-76
2023/12/03 01:18:33;;;;;;;68.10;36.40;;;;;;;2.53;100.00;99653.88;109887;1241;63987;-76
2023/12/03 01:21:02;;;;;;;67.10;35.30;;;;;;;2.50;100.00;99645.98;109881;1240;61628;-76
2023/12/03 01:23:31;;;;;;;62.30;34.20;;;;;;;2.47;100.00;99625.47;109883;1239;60243;-74
2023/12/03 01:26:00;;;;;;;65.90;34.70;;;;;;;2.46;100.00;99618.36;109774;1242;73686;-75
2023/12/03 01:28:28;;;;;;;66.00;35.80;;;;;;;2.47;100.00;99626.02;109848;1241;62253;-77
2023/12/03 01:30:57;;;;;;;68.80;37.70;;;;;;;2.46;100.00;99621.60;109734;1240;62231;-76
2023/12/03 01:33:27;;;;;;;68.00;37.00;;;;;;;2.46;100.00;99619.70;109852;1241;74030;-76
2023/12/03 01:35:56;;;;;;;70.50;36.40;;;;;;;2.43;100.00;99609.71;109878;1241;71324;-77
2023/12/03 01:38:24;;;;;;;76.20;40.40;;;;;;;2.42;100.00;99602.36;109855;1240;70865;-75
2023/12/03 01:40:54;;;;;;;79.20;43.80;;;;;;;2.35;100.00;99611.51;109863;1241;73718;-75
2023/12/03 01:43:22;;;;;;;78.50;42.30;;;;;;;2.25;100.00;99617.41;109738;1242;61564;-73
2023/12/03 01:45:51;;;;;;;82.70;43.20;;;;;;;2.22;100.00;99620.85;109861;1241;58265;-73
2023/12/03 01:48:20;;;;;;;80.20;42.50;;;;;;;2.25;100.00;99621.17;109749;1241;63625;-76
2023/12/03 01:50:49;;;;;;;77.70;42.20;;;;;;;2.26;100.00;99624.77;109649;1239;69990;-75
2023/12/03 01:53:18;;;;;;;80.30;42.20;;;;;;;2.21;100.00;99624.85;109634;1241;59462;-74
2023/12/03 01:55:47;;;;;;;76.90;42.50;;;;;;;2.19;100.00;99626.02;109694;1241;63067;-77
2023/12/03 01:58:21;;;;;;;78.10;42.50;;;;;;;2.17;100.00;99620.29;109658;1241;58264;-76
2023/12/03 02:00:50;;;;;;;80.40;42.20;;;;;;;2.12;100.00;99610.08;109656;1240;57743;-75
2023/12/03 02:03:19;;;;;;;77.50;41.70;;;;;;;2.09;100.00;99615.04;109721;1241;73494;-76
2023/12/03 02:05:49;;;;;;;76.50;39.70;;;;;;;2.09;100.00;99620.54;109577;1241;72555;-78
2023/12/03 02:08:17;;;;;;;79.70;42.40;;;;;;;2.05;100.00;99619.73;109724;1240;70798;-76
2023/12/03 02:10:46;;;;;;;76.90;39.60;;;;;;;1.98;100.00;99630.57;109853;1240;62687;-77
2023/12/03 02:13:15;;;;;;;75.80;39.00;;;;;;;1.91;100.00;99634.02;109831;1241;57760;-74
2023/12/03 02:15:44;;;;;;;71.60;38.20;;;;;;;1.84;100.00;99640.27;109889;1241;58297;-77
2023/12/03 02:18:13;;;;;;;79.40;41.00;;;;;;;1.74;100.00;99634.94;109769;1239;74406;-77
2023/12/03 02:20:41;;;;;;;77.80;40.10;;;;;;;1.75;100.00;99645.88;109686;1240;72443;-80
2023/12/03 02:23:14;;;;;;;73.30;38.50;;;;;;;1.72;100.00;99644.70;109700;1241;70367;-80
2023/12/03 02:25:43;;;;;;;73.40;38.90;;;;;;;1.67;100.00;99639.30;109629;1241;62612;-77
2023/12/03 02:28:12;;;;;;;71.10;38.40;;;;;;;1.62;100.00;99644.85;109708;1241;57820;-77
2023/12/03 02:30:41;;;;;;;71.00;38.20;;;;;;;1.58;100.00;99651.24;109725;1239;59629;-77
2023/12/03 02:33:10;;;;;;;75.20;38.20;;;;;;;1.56;100.00;99649.48;109717;1241;62918;-78
2023/12/03 02:35:39;;;;;;;72.70;38.60;;;;;;;1.54;100.00;99646.15;109676;1241;70313;-78
2023/12/03 02:38:08;;;;;;;71.60;39.20;;;;;;;1.50;100.00;99644.80;109680;1240;69617;-76
2023/12/03 02:40:38;;;;;;;75.50;39.40;;;;;;;1.45;100.00;99649.85;109529;1240;74227;-76
2023/12/03 02:43:07;;;;;;;71.50;37.60;;;;;;;1.41;100.00;99652.48;109646;1241;61570;-78
2023/12/03 02:45:36;;;;;;;67.40;35.70;;;;;;;1.39;100.00;99662.17;109572;1241;61211;-76
2023/12/03 02:48:05;;;;;;;64.20;33.70;;;;;;;1.37;100.00;99667.42;109619;1239;73284;-77
2023/12/03 02:50:34;;;;;;;64.40;34.40;;;;;;;1.35;100.00;99675.27;109708;1241;72071;-76
2023/12/03 02:53:02;;;;;;;63.70;33.80;;;;;;;1.31;100.00;99676.64;109650;1240;70638;-76
2023/12/03 02:55:31;;;;;;;66.50;35.90;;;;;;;1.30;100.00;99682.02;109564;1242;71905;-76
2023/12/03 02:58:00;;;;;;;67.40;38.70;;;;;;;1.29;100.00;99681.70;109560;1241;60329;-81
2023/12/03 03:00:29;;;;;;;66.40;36.50;;;;;;;1.30;100.00;99696.42;109669;1241;61127;-76
2023/12/03 03:02:57;;;;;;;65.60;36.90;;;;;;;1.30;100.00;99698.15;109592;1241;74771;-76
2023/12/03 03:05:26;;;;;;;68.50;36.10;;;;;;;1.28;100.00;99706.45;109684;1241;70281;-75
2023/12/03 03:07:55;;;;;;;63.60;36.10;;;;;;;1.26;100.00;99706.92;109732;1240;68654;-77
2023/12/03 03:10:24;;;;;;;69.40;37.20;;;;;;;1.22;100.00;99709.31;109733;1241;73839;-76
2023/12/03 03:12:52;;;;;;;68.60;38.00;;;;;;;1.25;100.00;99711.98;109606;1242;60960;-76
2023/12/03 03:15:21;;;;;;;65.80;36.80;;;;;;;1.24;100.00;99716.27;109716;1241;58201;-76
2023/12/03 03:17:50;;;;;;;65.90;35.50;;;;;;;1.20;100.00;99714.42;109717;1240;74213;-76
2023/12/03 03:20:21;;;;;;;60.70;35.10;;;;;;;1.21;100.00;99724.32;109767;1240;72605;-74
2023/12/03 03:22:51;;;;;;;65.80;36.50;;;;;;;1.18;100.00;99720.86;109586;1243;60204;-76
2023/12/03 03:25:20;;;;;;;65.90;34.20;;;;;;;1.17;100.00;99725.05;109719;1241;63013;-76
2023/12/03 03:27:49;;;;;;;62.60;34.80;;;;;;;1.11;100.00;99733.23;109797;1241;60949;-77
2023/12/03 03:30:18;;;;;;;56.10;31.70;;;;;;;0.99;100.00;99742.21;109892;1239;61105;-78
2023/12/03 03:32:46;;;;;;;58.40;32.20;;;;;;;0.88;100.00;99744.95;109846;1239;73765;-78
2023/12/03 03:35:15;;;;;;;58.50;32.30;;;;;;;0.86;100.00;99752.95;109937;1241;72326;-78
2023/12/03 03:37:44;;;;;;;66.50;34.80;;;;;;;0.87;100.00;99754.94;109991;1241;68974;-76
2023/12/03 03:40:13;;;;;;;66.60;35.50;;;;;;;0.91;100.00;99761.44;109925;1241;71297;-77
2023/12/03 03:42:42;;;;;;;67.80;37.70;;;;;;;0.92;100.00;99772.54;109979;1239;60371;-76
2023/12/03 03:45:11;;;;;;;66.20;36.10;;;;;;;0.80;100.00;99775.53;110026;1238;61042;-75
2023/12/03 03:47:41;;;;;;;66.30;36.00;;;;;;;0.63;100.00;99775.27;110015;1238;63474;-76
2023/12/03 03:50:10;;;;;;;60.30;32.60;;;;;;;0.61;100.00;99787.36;110016;1241;69513;-77
2023/12/03 03:52:39;;;;;;;74.80;39.20;;;;;;;0.61;100.00;99780.67;109992;1241;69039;-77
2023/12/03 03:55:08;;;;;;;66.60;36.10;;;;;;;0.58;100.00;99787.84;109890;1241;72331;-78
2023/12/03 03:57:37;;;;;;;65.50;35.50;;;;;;;0.56;100.00;99777.67;109874;1241;61902;-77
2023/12/03 04:00:06;;;;;;;67.80;36.70;;;;;;;0.54;100.00;99795.75;109926;1241;60794;-77
2023/12/03 04:02:39;;;;;;;65.20;34.10;;;;;;;0.55;100.00;99801.17;109935;1238;74305;-77
2023/12/03 04:05:08;;;;;;;66.40;35.80;;;;;;;0.54;100.00;99804.98;110026;1239;71546;-78
2023/12/03 04:07:37;;;;;;;66.20;36.60;;;;;;;0.52;100.00;99808.33;109920;1238;70127;-77
2023/12/03 04:10:06;;;;;;;66.80;36.80;;;;;;;0.48;100.00;99805.06;109974;1238;74340;-76
2023/12/03 04:12:35;;;;;;;66.40;37.20;;;;;;;0.45;100.00;99804.55;109970;1238;62555;-78
2023/12/03 04:15:05;;;;;;;67.50;37.10;;;;;;;0.39;100.00;99804.48;110023;1239;58651;-77
2023/12/03 04:17:34;;;;;;;50.10;27.10;;;;;;;0.37;100.00;99804.92;109982;1238;72795;-77
2023/12/03 04:20:04;;;;;;;42.40;25.70;;;;;;;0.37;100.00;99812.60;110028;1238;69558;-77
2023/12/03 04:22:34;;;;;;;47.90;25.90;;;;;;;0.42;100.00;99811.02;110021;1238;67884;-77
2023/12/03 04:25:04;;;;;;;42.40;23.40;;;;;;;0.55;100.00;99814.36;109868;1240;71917;-76
2023/12/03 04:27:33;;;;;;;46.30;24.90;;;;;;;0.66;100.00;99820.56;109795;1239;61855;-76
2023/12/03 04:30:02;;;;;;;38.40;22.20;;;;;;;0.74;100.00;99816.25;109802;1241;61591;-76
2023/12/03 04:32:30;;;;;;;35.10;20.30;;;;;;;0.87;100.00;99824.39;109718;1238;75127;-76
2023/12/03 04:34:59;;;;;;;32.50;18.30;;;;;;;0.83;100.00;99830.58;109955;1239;70290;-78
2023/12/03 04:37:28;;;;;;;33.50;19.90;;;;;;;0.81;100.00;99832.21;109853;1237;68023;-76
2023/12/03 04:39:57;;;;;;;32.20;19.00;;;;;;;0.82;100.00;99840.20;109840;1239;72230;-78
2023/12/03 04:42:26;;;;;;;34.20;19.70;;;;;;;0.88;100.00;99845.10;109936;1239;62463;-77
2023/12/03 04:44:55;;;;;;;30.40;18.40;;;;;;;1.06;100.00;99847.83;109922;1238;61796;-78
2023/12/03 04:47:24;;;;;;;33.30;17.40;;;;;;;1.27;100.00;99848.72;110057;1238;73856;-76
2023/12/03 04:49:54;;;;;;;26.60;15.10;;;;;;;1.42;100.00;99846.14;109923;1238;71470;-78
2023/12/03 04:52:22;;;;;;;24.60;14.10;;;;;;;1.44;100.00;99846.73;109979;1238;70769;-76
2023/12/03 04:54:51;;;;;;;23.80;13.90;;;;;;;1.41;100.00;99853.02;109963;1238;62980;-77
2023/12/03 04:57:20;;;;;;;25.00;13.30;;;;;;;1.44;100.00;99856.85;109877;1238;61889;-77
2023/12/03 04:59:48;;;;;;;24.60;15.30;;;;;;;1.56;100.00;99862.95;109650;1239;61757;-75
2023/12/03 05:02:17;;;;;;;24.80;13.80;;;;;;;1.69;100.00;99862.69;109838;1238;63377;-77
2023/12/03 05:04:46;;;;;;;20.90;13.00;;;;;;;1.73;100.00;99861.76;109815;1238;72680;-76
2023/12/03 05:07:15;;;;;;;21.20;13.00;;;;;;;1.77;100.00;99867.91;109800;1239;62036;-77
2023/12/03 05:09:44;;;;;;;16.40;9.90;;;;;;;1.80;100.00;99871.53;109826;1238;72908;-76
2023/12/03 05:12:12;;;;;;;16.70;9.70;;;;;;;1.83;100.00;99870.18;109789;1240;62380;-76
2023/12/03 05:14:41;;;;;;;11.80;7.20;;;;;;;1.89;100.00;99887.80;109820;1238;61355;-76
2023/12/03 05:17:10;;;;;;;8.90;5.00;;;;;;;2.22;100.00;99945.88;109824;1238;74879;-77
2023/12/03 05:19:42;;;;;;;10.40;6.10;;;;;;;3.01;100.00;99950.09;109790;1238;61950;-78
2023/12/03 05:22:11;;;;;;;16.80;10.00;;;;;;;4.19;100.00;99987.60;109990;1238;59295;-74
2023/12/03 05:24:40;;;;;;;22.90;12.70;;;;;;;4.83;100.00;100007.30;109915;1238;71918;-75
2023/12/03 05:27:08;;;;;;;22.00;12.10;;;;;;;4.90;100.00;100016.44;109937;1241;61458;-75
2023/12/03 05:29:45;;;;;;;21.70;11.60;;;;;;;4.88;100.00;100026.55;109906;1238;58159;-76
2023/12/03 05:32:14;;;;;;;17.80;10.90;;;;;;;4.78;100.00;100034.69;109884;1238;63874;-76
2023/12/03 05:34:45;;;;;;;14.50;7.40;;;;;;;4.69;100.00;100057.14;109965;1238;72274;-77
2023/12/03 05:37:14;;;;;;;12.30;7.10;;;;;;;4.60;100.00;100081.48;109965;1238;70950;-78
2023/12/03 05:39:43;;;;;;;13.20;8.40;;;;;;;4.29;100.00;100085.31;109942;1238;73277;-77
2023/12/03 05:42:13;;;;;;;11.10;6.60;;;;;;;4.10;100.00;100089.30;109729;1238;61503;-77
2023/12/03 05:44:42;;;;;;;10.60;6.20;;;;;;;3.96;100.00;100099.38;109755;1238;58215;-78
2023/12/03 05:47:11;;;;;;;10.50;6.30;;;;;;;3.92;100.00;100099.59;109773;1239;63555;-76
2023/12/03 05:49:40;;;;;;;9.60;6.00;;;;;;;3.84;100.00;100109.52;109535;1239;72847;-77
2023/12/03 05:52:09;;;;;;;8.10;4.80;;;;;;;3.67;100.00;100101.95;109567;1238;60893;-76
2023/12/03 05:54:42;;;;;;;8.90;6.20;;;;;;;3.53;100.00;100112.51;109814;1238;62495;-75
2023/12/03 05:57:12;;;;;;;7.30;4.80;;;;;;;3.45;100.00;100124.34;109735;1241;58356;-76
2023/12/03 05:59:41;;;;;;;8.00;4.80;;;;;;;3.41;100.00;100132.76;109666;1238;60388;-75
2023/12/03 06:02:09;;;;;;;7.70;5.40;;;;;;;3.29;100.00;100144.77;109799;1238;74706;-77
2023/12/03 06:04:38;;;;;;;7.60;5.10;;;;;;;3.20;100.00;100158.97;109801;1238;61909;-75
2023/12/03 06:07:07;;;;;;;8.00;5.20;;;;;;;3.14;100.00;100172.54;109596;1238;59883;-76
2023/12/03 06:09:36;;;;;;;11.20;5.20;;;;;;;3.05;100.00;100189.32;109784;1238;73813;-76
2023/12/03 06:12:06;;;;;;;8.00;4.90;;;;;;;3.06;100.00;100193.77;109847;1238;58227;-76
2023/12/03 06:14:35;;;;;;;6.80;4.30;;;;;;;2.95;100.00;100208.73;109858;1238;61073;-75
2023/12/03 06:17:03;;;;;;;8.60;5.70;;;;;;;2.93;100.00;100214.00;109720;1239;65480;-76
2023/12/03 06:19:32;;;;;;;6.60;4.30;;;;;;;2.83;100.00;100223.98;109778;1239;62937;-75
2023/12/03 06:22:01;;;;;;;6.80;4.70;;;;;;;2.78;100.00;100238.98;109925;1238;59781;-76
2023/12/03 06:24:30;;;;;;;8.40;4.80;;;;;;;2.76;100.00;100242.88;109981;1238;73047;-76
2023/12/03 06:26:58;;;;;;;6.60;4.20;;;;;;;2.73;100.00;100254.36;109925;1239;62488;-75
2023/12/03 06:29:27;;;;;;;5.80;4.10;;;;;;;2.78;100.00;100274.08;109781;1238;61747;-76
2023/12/03 06:31:56;;;;;;;5.80;3.50;;;;;;;2.76;100.00;100285.17;110014;1238;63631;-77
2023/12/03 06:34:25;;;;;;;6.50;4.30;;;;;;;2.74;100.00;100295.44;110001;1238;70902;-76
2023/12/03 06:36:54;;;;;;;5.50;4.10;;;;;;;2.68;100.00;100306.70;109942;1239;71014;-77
2023/12/03 06:39:22;;;;;;;7.80;4.30;;;;;;;2.66;100.00;100326.23;109989;1238;73333;-78
2023/12/03 06:41:51;;;;;;;7.60;4.50;;;;;;;2.61;100.00;100337.11;109405;1241;665913;-76
2023/12/03 06:44:20;;;;;;;7.90;4.90;;;;;;;2.57;100.00;100344.70;110089;1238;58116;-76
2023/12/03 06:47:06;;;;;;;8.80;5.30;;;;;;;2.45;100.00;100353.31;110048;1238;62808;-77
2023/12/03 06:49:35;;;;;;;8.30;5.00;;;;;;;2.44;100.00;100365.54;109949;1238;71386;-77
2023/12/03 06:52:04;;;;;;;7.70;4.70;;;;;;;2.39;100.00;100387.95;109902;1238;70226;-74
2023/12/03 06:54:32;;;;;;;8.30;5.30;;;;;;;2.37;100.00;100398.48;109860;1238;73653;-77
2023/12/03 06:57:01;;;;;;;8.50;5.30;;;;;;;2.31;100.00;100403.23;109962;1239;61925;-76
2023/12/03 06:59:30;;;;;;;9.20;5.50;;;;;;;2.21;100.00;100402.80;109903;1238;57771;-77
2023/12/03 07:01:59;;;;;;;7.50;5.30;;;;;;;2.23;100.00;100413.54;110042;1238;62771;-78
2023/12/03 07:04:28;;;;;;;13.20;6.30;;;;;;;2.28;100.00;100419.32;110024;1238;60943;-77
2023/12/03 07:06:57;;;;;;;9.50;5.90;;;;;;;2.32;100.00;100421.38;109997;1238;70902;-78
2023/12/03 07:09:31;;;;;;;9.00;6.10;;;;;;;2.31;100.00;100425.76;110001;1238;62608;-77
2023/12/03 07:12:08;;;;;;;10.70;5.10;;;;;;;2.29;100.00;100425.66;110029;1240;58255;-75
2023/12/03 07:14:37;;;;;;;8.30;5.80;;;;;;;2.27;100.00;100434.52;109847;1238;60994;-74
2023/12/03 07:17:06;;;;;;;9.50;6.00;;;;;;;2.23;100.00;100447.57;109987;1238;74696;-75
2023/12/03 07:19:35;;;;;;;9.20;5.60;;;;;;;2.17;100.00;100458.98;109882;1239;61401;-75
2023/12/03 07:22:04;;;;;;;9.20;6.20;;;;;;;2.16;100.00;100461.78;109976;1239;69246;-74
2023/12/03 07:24:33;;;;;;;10.70;5.90;;;;;;;2.17;100.00;100474.98;110025;1238;72071;-73
2023/12/03 07:27:02;;;;;;;10.30;6.00;;;;;;;2.17;100.00;100484.23;109987;1239;61866;-75
2023/12/03 07:29:31;;;;;;;10.10;5.70;;;;;;;2.11;100.00;100491.36;109962;1238;60513;-71
2023/12/03 07:32:00;;;;;;;12.40;7.00;;;;;;;2.15;100.00;100499.77;110027;1238;64192;-75
2023/12/03 07:34:32;;;;;;;11.40;6.60;;;;;;;2.16;100.00;100500.76;109805;1240;71972;-76
2023/12/03 07:37:01;;;;;;;14.40;6.40;;;;;;;2.17;100.00;100506.42;109931;1240;70654;-73
2023/12/03 07:39:31;;;;;;;7.80;4.90;;;;;;;2.18;100.00;100514.10;109942;1241;63975;-72
2023/12/03 07:42:00;;;;;;;10.50;6.60;;;;;;;2.17;100.00;100527.17;109962;1239;58285;-73
2023/12/03 07:44:29;;;;;;;10.50;6.70;;;;;;;2.19;100.00;100531.25;109840;1240;58267;-74
2023/12/03 07:46:58;;;;;;;9.80;6.70;;;;;;;2.18;100.00;100543.30;109937;1240;74908;-73
2023/12/03 07:49:27;;;;;;;10.90;7.10;;;;;;;2.21;100.00;100559.35;109941;1240;63027;-73
2023/12/03 07:51:56;;;;;;;12.00;7.40;;;;;;;2.17;100.00;100557.95;109904;1238;68643;-71
2023/12/03 07:54:25;;;;;;;14.10;8.30;;;;;;;2.22;100.00;100568.95;109732;1238;63761;-73
2023/12/03 07:56:54;;;;;;;11.30;6.20;;;;;;;2.21;100.00;100574.30;109959;1238;58328;-76
2023/12/03 07:59:23;;;;;;;14.40;8.40;;;;;;;2.14;100.00;100577.65;109930;1238;61193;-74
2023/12/03 08:01:52;;;;;;;16.10;8.70;;;;;;;2.19;100.00;100582.63;109989;1238;73978;-75
2023/12/03 08:04:21;;;;;;;17.90;8.80;;;;;;;2.25;100.00;100594.21;110006;1238;70549;-75
2023/12/03 08:06:50;;;;;;;17.00;9.60;;;;;;;2.32;100.00;100606.46;109943;1241;70574;-74
2023/12/03 08:09:18;;;;;;;15.60;9.20;;;;;;;2.40;100.00;100618.02;109949;1238;73867;-74
2023/12/03 08:11:48;;;;;;;20.10;9.20;;;;;;;2.46;100.00;100618.83;109947;1240;58319;-74
2023/12/03 08:14:17;;;;;;;15.70;9.00;;;;;;;2.53;100.00;100623.52;109882;1238;61201;-74
2023/12/03 08:16:47;;;;;;;18.40;10.40;;;;;;;2.59;100.00;100623.95;109940;1238;75006;-73
2023/12/03 08:19:15;;;;;;;18.60;9.40;;;;;;;2.66;100.00;100629.70;109990;1238;73504;-74
2023/12/03 08:21:44;;;;;;;17.40;9.90;;;;;;;2.73;100.00;100640.24;109994;1238;69798;-75
2023/12/03 08:24:14;;;;;;;21.50;11.90;;;;;;;2.80;100.00;100642.90;110023;1240;65244;-74
2023/12/03 08:26:45;;;;;;;18.20;10.10;;;;;;;2.87;100.00;100643.96;110020;1239;60526;-73
2023/12/03 08:29:13;;;;;;;16.50;9.20;;;;;;;3.00;100.00;100644.30;110034;1238;61226;-71
2023/12/03 08:31:42;;;;;;;14.70;9.30;;;;;;;2.98;100.00;100649.34;109987;1238;72456;-72
2023/12/03 08:34:11;;;;;;;20.80;11.20;;;;;;;2.99;100.00;100636.92;109878;1240;68710;-74
2023/12/03 08:36:40;;;;;;;15.50;8.60;;;;;;;3.05;100.00;100631.85;109944;1238;69006;-73
2023/12/03 08:39:09;;;;;;;18.50;10.50;;;;;;;3.13;100.00;100637.21;109974;1238;74111;-79
2023/12/03 08:41:38;;;;;;;19.30;10.90;;;;;;;3.21;100.00;100651.65;109891;1239;60105;-72
2023/12/03 08:44:07;;;;;;;15.30;7.90;;;;;;;3.24;100.00;100666.68;109863;1238;60284;-72
2023/12/03 08:46:36;;;;;;;14.20;8.20;;;;;;;3.29;100.00;100668.86;109916;1238;73460;-72
2023/12/03 08:49:05;;;;;;;15.70;9.00;;;;;;;3.29;100.00;100672.66;109820;1241;69477;-72
2023/12/03 08:51:34;;;;;;;16.10;8.90;;;;;;;3.21;100.00;100681.95;109869;1238;69963;-73
2023/12/03 08:54:03;;;;;;;17.90;10.40;;;;;;;3.15;100.00;100691.48;109703;1240;72910;-74
2023/12/03 08:56:32;;;;;;;18.90;9.40;;;;;;;3.16;100.00;100686.13;109872;1239;61616;-76
2023/12/03 08:59:01;;;;;;;19.50;10.10;;;;;;;3.27;100.00;100685.33;109846;1238;61931;-75
2023/12/03 09:01:29;;;;;;;15.50;9.40;;;;;;;3.35;100.00;100695.47;109780;1238;74290;-74
2023/12/03 09:03:58;;;;;;;14.70;8.60;;;;;;;3.37;100.00;100697.95;109711;1238;71774;-74
2023/12/03 09:06:27;;;;;;;14.40;9.20;;;;;;;3.29;100.00;100696.56;109589;1239;71111;-79
2023/12/03 09:08:56;;;;;;;16.70;10.00;;;;;;;3.12;100.00;100697.27;109678;1238;63835;-78
2023/12/03 09:11:25;;;;;;;17.50;9.10;;;;;;;2.97;100.00;100695.84;109688;1241;58263;-77
2023/12/03 09:13:54;;;;;;;17.70;10.10;;;;;;;2.91;100.00;100699.19;109719;1238;60978;-78
2023/12/03 09:16:22;;;;;;;18.10;8.70;;;;;;;2.89;100.00;100697.55;109722;1238;75082;-75
2023/12/03 09:18:52;;;;;;;18.50;10.20;;;;;;;2.87;100.00;100703.81;109745;1238;62033;-81
2023/12/03 09:21:23;;;;;;;19.10;10.60;;;;;;;2.80;100.00;100706.33;109766;1238;70400;-79
2023/12/03 09:23:54;;;;;;;19.40;10.40;;;;;;;2.86;100.00;100705.94;109692;1238;64850;-81
2023/12/03 09:26:22;;;;;;;17.30;9.40;;;;;;;2.72;100.00;100704.27;109737;1238;61887;-81
2023/12/03 09:28:51;;;;;;;16.60;8.90;;;;;;;2.73;100.00;100704.39;109708;1241;58383;-82
2023/12/03 09:31:20;;;;;;;18.30;9.50;;;;;;;2.74;100.00;100711.08;109729;1241;63564;-81
2023/12/03 09:33:49;;;;;;;17.30;9.50;;;;;;;2.87;100.00;100712.77;109750;1240;70219;-81
2023/12/03 09:36:18;;;;;;;18.40;9.40;;;;;;;2.96;100.00;100702.09;109769;1239;67879;-82
2023/12/03 09:38:47;;;;;;;14.40;8.80;;;;;;;3.10;100.00;100714.23;109931;1238;73646;-82
2023/12/03 09:41:19;;;;;;;14.20;8.70;;;;;;;3.14;100.00;100720.27;109790;1241;59973;-81
2023/12/03 09:43:58;;;;;;;16.20;9.50;;;;;;;3.16;100.00;100741.38;109840;1238;61308;-80
2023/12/03 09:46:32;;;;;;;15.30;8.00;;;;;;;3.13;100.00;100744.39;109827;1238;74980;-82
2023/12/03 09:49:03;;;;;;;16.90;9.30;;;;;;;3.20;100.00;100738.44;109923;1239;62616;-80
2023/12/03 09:51:33;;;;;;;15.60;8.80;;;;;;;3.20;100.00;100747.90;109905;1239;59110;-81
2023/12/03 09:54:02;;;;;;;18.70;9.20;;;;;;;3.16;100.00;100750.48;109856;1239;73782;-81
2023/12/03 09:56:32;;;;;;;14.30;8.70;;;;;;;3.23;100.00;100754.33;109774;1240;61262;-81
2023/12/03 09:59:01;;;;;;;16.60;8.70;;;;;;;3.34;100.00;100760.76;109832;1238;61183;-83
2023/12/03 10:01:31;;;;;;;13.60;8.30;;;;;;;3.41;100.00;100764.60;109767;1241;72855;-80
2023/12/03 10:03:59;;;;;;;17.60;9.10;;;;;;;3.57;100.00;100769.09;109774;1238;71305;-82
2023/12/03 10:06:32;;;;;;;13.00;6.80;;;;;;;3.52;100.00;100781.89;109953;1238;69782;-82
2023/12/03 10:09:04;;;;;;;14.50;7.50;;;;;;;3.57;100.00;100785.27;109894;1241;63658;-83
2023/12/03 10:11:40;;;;;;;15.00;8.40;;;;;;;3.63;100.00;100787.60;109773;1239;60243;-80
2023/12/03 10:14:16;;;;;;;14.40;8.00;;;;;;;3.62;100.00;100801.09;109878;1239;59521;-80
2023/12/03 10:16:51;;;;;;;13.20;7.50;;;;;;;3.59;100.00;100805.52;109899;1238;74979;-83
2023/12/03 10:19:27;;;;;;;13.50;7.50;;;;;;;3.71;100.00;100812.08;109869;1238;72508;-79
2023/12/03 10:21:59;;;;;;;14.50;7.70;;;;;;;3.75;100.00;100800.39;109917;1238;70238;-79
2023/12/03 10:24:29;;;;;;;12.40;6.50;;;;;;;3.80;100.00;100796.71;109854;1241;71774;-84
2023/12/03 10:27:03;;;;;;;13.70;7.60;;;;;;;3.81;100.00;100807.67;109783;1242;60086;-83
2023/12/03 10:29:32;;;;;;;14.10;8.40;;;;;;;3.68;100.00;100817.71;109939;1241;58174;-84
2023/12/03 10:32:01;;;;;;;15.40;8.50;;;;;;;3.61;100.00;100825.40;109966;1240;63774;-80
2023/12/03 10:34:31;;;;;;;15.80;8.50;;;;;;;3.67;100.00;100823.80;109913;1240;60705;-80
2023/12/03 10:37:04;;;;;;;11.60;6.70;;;;;;;3.72;100.00;100823.56;109997;1240;67875;-80
2023/12/03 10:39:37;;;;;;;14.50;7.30;;;;;;;3.83;100.00;100828.10;109863;1238;72987;-81
2023/12/03 10:42:08;;;;;;;12.60;7.10;;;;;;;4.08;100.00;100830.50;109699;1239;60147;-80
2023/12/03 10:44:38;;;;;;;14.10;7.90;;;;;;;4.36;100.00;100832.88;109717;1245;60754;-78
2023/12/03 10:47:07;;;;;;;15.40;7.70;;;;;;;4.37;100.00;100837.48;109755;1240;64347;-81
2023/12/03 10:49:36;;;;;;;11.70;6.20;;;;;;;4.43;100.00;100831.88;109884;1240;71938;-79
2023/12/03 10:52:05;;;;;;;10.60;6.50;;;;;;;4.27;100.00;100838.10;109735;1241;59663;-78
2023/12/03 10:54:35;;;;;;;13.30;7.00;;;;;;;4.02;100.00;100840.05;109717;1241;63340;-81
2023/12/03 10:57:08;;;;;;;10.60;6.00;;;;;;;3.83;100.00;100846.55;109757;1240;60537;-81
2023/12/03 10:59:41;;;;;;;11.50;5.80;;;;;;;3.75;100.00;100841.20;109697;1242;59419;-79
2023/12/03 11:02:11;;;;;;;13.20;6.80;;;;;;;3.89;100.00;100846.27;109722;1244;74367;-79
2023/12/03 11:04:57;;;;;;;10.80;5.90;;;;;;;4.19;100.00;100873.07;109834;1241;69524;-77
2023/12/03 11:07:29;;;;;;;8.60;4.80;;;;;;;4.16;100.00;100859.44;109956;1240;69250;-77
2023/12/03 11:09:59;;;;;;;11.40;6.30;;;;;;;4.23;100.00;100863.78;109945;1238;74275;-74
2023/12/03 11:12:28;;;;;;;11.30;5.90;;;;;;;4.30;100.00;100867.09;109822;1238;58733;-75
2023/12/03 11:14:58;;;;;;;13.40;7.30;;;;;;;4.47;100.00;100868.41;109869;1238;61020;-75
2023/12/03 11:17:40;;;;;;;14.20;7.20;;;;;;;4.67;100.00;100866.64;109834;1238;74045;-73
2023/12/03 11:20:18;;;;;;;10.50;5.80;;;;;;;4.98;100.00;100873.52;109987;1238;72811;-86